sensor_id;sensor_type;location;lat;lon;timestamp;temperature;humidity
9167;DHT22;4618;48.818;9.088;2022-09-09T00:09:19;16.40;1.00
9167;DHT22;4618;48.818;9.088;2022-09-09T00:11:50;16.40;1.00
9167;DHT22;4618;48.818;9.088;2022-09-09T00:14:25;16.50;1.00
9167;DHT22;4618;48.818;9.088;2022-09-09T00:16:56;16.40;1.00
9167;DHT22;4618;48.818;9.088;2022-09-09T00:19:31;16.50;1.00
9167;DHT22;4618;48.818;9.088;2022-09-09T00:22:18;16.60;1.00
9167;DHT22;4618;48.818;9.088;2022-09-09T00:25:02;16.60;1.00
9167;DHT22;4618;48.818;9.088;2022-09-09T00:27:41;16.60;1.00
9167;DHT22;4618;48.818;9.088;2022-09-09T00:32:54;16.50;1.00
9167;DHT22;4618;48.818;9.088;2022-09-09T00:35:33;16.50;1.00
9167;DHT22;4618;48.818;9.088;2022-09-09T00:38:34;16.40;1.00
9167;DHT22;4618;48.818;9.088;2022-09-09T00:41:21;16.50;1.00
9167;DHT22;4618;48.818;9.088;2022-09-09T00:52:01;16.50;1.00
9167;DHT22;4618;48.818;9.088;2022-09-09T00:54:44;16.50;1.00
9167;DHT22;4618;48.818;9.088;2022-09-09T00:57:30;16.40;1.00
9167;DHT22;4618;48.818;9.088;2022-09-09T01:00:16;16.50;1.00
9167;DHT22;4618;48.818;9.088;2022-09-09T01:11:01;16.40;1.00
9167;DHT22;4618;48.818;9.088;2022-09-09T01:13:34;16.40;1.00
9167;DHT22;4618;48.818;9.088;2022-09-09T01:16:04;16.40;1.00
9167;DHT22;4618;48.818;9.088;2022-09-09T01:18:39;16.40;1.00
9167;DHT22;4618;48.818;9.088;2022-09-09T01:26:50;16.40;1.00
9167;DHT22;4618;48.818;9.088;2022-09-09T01:29:18;16.30;5.70
9167;DHT22;4618;48.818;9.088;2022-09-09T01:32:35;16.30;13.80
9167;DHT22;4618;48.818;9.088;2022-09-09T01:34:48;16.30;34.10
9167;DHT22;4618;48.818;9.088;2022-09-09T01:37:15;16.40;8.10
9167;DHT22;4618;48.818;9.088;2022-09-09T01:39:43;16.30;39.90
9167;DHT22;4618;48.818;9.088;2022-09-09T01:42:12;16.30;99.90
9167;DHT22;4618;48.818;9.088;2022-09-09T01:44:38;16.30;99.90
9167;DHT22;4618;48.818;9.088;2022-09-09T01:47:05;16.30;99.90
9167;DHT22;4618;48.818;9.088;2022-09-09T01:49:31;16.30;99.90
9167;DHT22;4618;48.818;9.088;2022-09-09T01:51:58;16.20;99.90
9167;DHT22;4618;48.818;9.088;2022-09-09T01:54:28;16.20;99.90
9167;DHT22;4618;48.818;9.088;2022-09-09T02:02:19;15.90;99.90
9167;DHT22;4618;48.818;9.088;2022-09-09T02:04:52;15.90;1.00
9167;DHT22;4618;48.818;9.088;2022-09-09T02:07:44;15.80;1.00
9167;DHT22;4618;48.818;9.088;2022-09-09T02:10:19;15.90;99.90
9167;DHT22;4618;48.818;9.088;2022-09-09T02:12:48;15.90;1.00
9167;DHT22;4618;48.818;9.088;2022-09-09T02:15:30;15.80;1.00
9167;DHT22;4618;48.818;9.088;2022-09-09T02:17:58;15.80;1.00
9167;DHT22;4618;48.818;9.088;2022-09-09T02:20:27;15.70;1.00
9167;DHT22;4618;48.818;9.088;2022-09-09T02:22:59;15.70;1.00
9167;DHT22;4618;48.818;9.088;2022-09-09T02:25:28;15.60;1.00
9167;DHT22;4618;48.818;9.088;2022-09-09T02:27:55;15.70;1.00
9167;DHT22;4618;48.818;9.088;2022-09-09T02:30:21;15.60;1.00
9167;DHT22;4618;48.818;9.088;2022-09-09T02:32:48;15.50;99.90
9167;DHT22;4618;48.818;9.088;2022-09-09T02:35:20;15.30;99.90
9167;DHT22;4618;48.818;9.088;2022-09-09T02:37:46;15.20;1.00
9167;DHT22;4618;48.818;9.088;2022-09-09T02:40:13;15.20;1.00
9167;DHT22;4618;48.818;9.088;2022-09-09T02:42:45;15.20;1.00
9167;DHT22;4618;48.818;9.088;2022-09-09T02:45:14;15.30;1.00
9167;DHT22;4618;48.818;9.088;2022-09-09T02:48:14;15.30;1.00
9167;DHT22;4618;48.818;9.088;2022-09-09T02:53:39;15.20;1.00
9167;DHT22;4618;48.818;9.088;2022-09-09T02:56:14;15.20;1.00
9167;DHT22;4618;48.818;9.088;2022-09-09T02:58:41;15.10;1.00
9167;DHT22;4618;48.818;9.088;2022-09-09T03:01:07;15.00;1.00
9167;DHT22;4618;48.818;9.088;2022-09-09T03:03:34;15.00;1.00
9167;DHT22;4618;48.818;9.088;2022-09-09T03:06:00;15.00;1.00
9167;DHT22;4618;48.818;9.088;2022-09-09T03:08:25;15.10;1.00
9167;DHT22;4618;48.818;9.088;2022-09-09T03:10:54;15.00;1.00
9167;DHT22;4618;48.818;9.088;2022-09-09T03:13:20;15.00;1.00
9167;DHT22;4618;48.818;9.088;2022-09-09T03:15:47;14.80;39.60
9167;DHT22;4618;48.818;9.088;2022-09-09T03:18:13;14.70;99.90
9167;DHT22;4618;48.818;9.088;2022-09-09T03:20:39;14.60;99.90
9167;DHT22;4618;48.818;9.088;2022-09-09T03:23:05;14.70;99.90
9167;DHT22;4618;48.818;9.088;2022-09-09T03:25:31;14.80;99.90
9167;DHT22;4618;48.818;9.088;2022-09-09T03:27:57;14.90;1.00
9167;DHT22;4618;48.818;9.088;2022-09-09T03:30:25;14.90;17.20
9167;DHT22;4618;48.818;9.088;2022-09-09T03:32:51;14.70;99.90
9167;DHT22;4618;48.818;9.088;2022-09-09T03:35:17;14.60;1.00
9167;DHT22;4618;48.818;9.088;2022-09-09T03:37:43;14.70;99.90
9167;DHT22;4618;48.818;9.088;2022-09-09T03:40:09;14.90;1.00
9167;DHT22;4618;48.818;9.088;2022-09-09T03:42:36;14.90;1.00
9167;DHT22;4618;48.818;9.088;2022-09-09T03:45:07;14.90;1.00
9167;DHT22;4618;48.818;9.088;2022-09-09T03:47:33;15.10;1.00
9167;DHT22;4618;48.818;9.088;2022-09-09T03:49:59;15.20;99.90
9167;DHT22;4618;48.818;9.088;2022-09-09T03:52:24;15.20;99.90
9167;DHT22;4618;48.818;9.088;2022-09-09T03:54:52;15.30;99.90
9167;DHT22;4618;48.818;9.088;2022-09-09T03:57:18;15.50;25.00
9167;DHT22;4618;48.818;9.088;2022-09-09T03:59:44;15.50;90.00
9167;DHT22;4618;48.818;9.088;2022-09-09T04:02:09;15.40;99.90
9167;DHT22;4618;48.818;9.088;2022-09-09T04:04:35;15.20;1.00
9167;DHT22;4618;48.818;9.088;2022-09-09T04:07:01;15.20;1.00
9167;DHT22;4618;48.818;9.088;2022-09-09T04:09:27;15.20;99.90
9167;DHT22;4618;48.818;9.088;2022-09-09T04:11:52;15.40;99.90
9167;DHT22;4618;48.818;9.088;2022-09-09T04:14:19;15.50;99.90
9167;DHT22;4618;48.818;9.088;2022-09-09T04:16:44;15.70;1.00
9167;DHT22;4618;48.818;9.088;2022-09-09T04:19:11;15.70;1.00
9167;DHT22;4618;48.818;9.088;2022-09-09T04:21:42;15.80;1.00
9167;DHT22;4618;48.818;9.088;2022-09-09T04:24:08;15.80;1.00
9167;DHT22;4618;48.818;9.088;2022-09-09T04:26:35;15.80;1.00
9167;DHT22;4618;48.818;9.088;2022-09-09T04:29:02;15.80;1.00
9167;DHT22;4618;48.818;9.088;2022-09-09T04:31:28;15.80;1.00
9167;DHT22;4618;48.818;9.088;2022-09-09T04:33:54;15.80;1.00
9167;DHT22;4618;48.818;9.088;2022-09-09T04:36:20;15.80;1.00
9167;DHT22;4618;48.818;9.088;2022-09-09T04:38:46;15.80;1.00
9167;DHT22;4618;48.818;9.088;2022-09-09T04:41:12;15.80;1.00
9167;DHT22;4618;48.818;9.088;2022-09-09T04:43:38;15.70;42.30
9167;DHT22;4618;48.818;9.088;2022-09-09T04:46:04;15.60;18.00
9167;DHT22;4618;48.818;9.088;2022-09-09T04:48:30;15.60;1.00
9167;DHT22;4618;48.818;9.088;2022-09-09T04:51:05;15.60;1.00
9167;DHT22;4618;48.818;9.088;2022-09-09T04:53:31;15.70;1.00
9167;DHT22;4618;48.818;9.088;2022-09-09T04:58:28;15.70;1.00
9167;DHT22;4618;48.818;9.088;2022-09-09T05:00:54;15.80;1.00
9167;DHT22;4618;48.818;9.088;2022-09-09T05:03:19;15.90;1.00
9167;DHT22;4618;48.818;9.088;2022-09-09T05:05:45;15.70;1.00
9167;DHT22;4618;48.818;9.088;2022-09-09T05:08:10;15.80;1.00
9167;DHT22;4618;48.818;9.088;2022-09-09T05:10:38;15.90;99.90
9167;DHT22;4618;48.818;9.088;2022-09-09T05:13:04;16.00;99.90
9167;DHT22;4618;48.818;9.088;2022-09-09T05:15:30;16.00;99.90
9167;DHT22;4618;48.818;9.088;2022-09-09T05:17:58;16.00;99.90
9167;DHT22;4618;48.818;9.088;2022-09-09T05:20:24;16.10;99.90
9167;DHT22;4618;48.818;9.088;2022-09-09T05:22:56;16.10;99.90
9167;DHT22;4618;48.818;9.088;2022-09-09T05:25:22;15.90;99.90
9167;DHT22;4618;48.818;9.088;2022-09-09T05:27:47;16.00;99.90
9167;DHT22;4618;48.818;9.088;2022-09-09T05:30:13;16.10;99.90
9167;DHT22;4618;48.818;9.088;2022-09-09T05:32:39;16.00;99.90
9167;DHT22;4618;48.818;9.088;2022-09-09T05:35:05;15.90;1.00
9167;DHT22;4618;48.818;9.088;2022-09-09T05:37:31;16.00;99.90
9167;DHT22;4618;48.818;9.088;2022-09-09T05:39:57;16.00;99.90
9167;DHT22;4618;48.818;9.088;2022-09-09T05:42:23;16.00;99.90
9167;DHT22;4618;48.818;9.088;2022-09-09T05:44:49;16.00;99.90
9167;DHT22;4618;48.818;9.088;2022-09-09T05:47:16;16.00;99.90
9167;DHT22;4618;48.818;9.088;2022-09-09T05:49:42;16.10;99.90
9167;DHT22;4618;48.818;9.088;2022-09-09T05:52:08;16.10;99.90
9167;DHT22;4618;48.818;9.088;2022-09-09T05:54:35;16.10;99.90
9167;DHT22;4618;48.818;9.088;2022-09-09T05:57:02;16.10;99.90
9167;DHT22;4618;48.818;9.088;2022-09-09T05:59:27;16.20;99.90
9167;DHT22;4618;48.818;9.088;2022-09-09T06:01:53;16.20;99.90
9167;DHT22;4618;48.818;9.088;2022-09-09T06:04:19;16.20;99.90
9167;DHT22;4618;48.818;9.088;2022-09-09T06:06:49;16.20;99.90
9167;DHT22;4618;48.818;9.088;2022-09-09T06:09:15;16.30;99.90
9167;DHT22;4618;48.818;9.088;2022-09-09T06:11:41;16.40;99.90
9167;DHT22;4618;48.818;9.088;2022-09-09T06:14:07;16.40;99.90
9167;DHT22;4618;48.818;9.088;2022-09-09T06:16:34;16.50;99.90
9167;DHT22;4618;48.818;9.088;2022-09-09T06:19:00;16.60;99.90
9167;DHT22;4618;48.818;9.088;2022-09-09T06:21:28;16.70;99.90
9167;DHT22;4618;48.818;9.088;2022-09-09T06:23:55;16.60;98.00
9167;DHT22;4618;48.818;9.088;2022-09-09T06:26:32;16.70;99.90
9167;DHT22;4618;48.818;9.088;2022-09-09T06:28:59;16.70;99.90
9167;DHT22;4618;48.818;9.088;2022-09-09T06:31:27;16.70;99.90
9167;DHT22;4618;48.818;9.088;2022-09-09T06:33:56;16.60;99.90
9167;DHT22;4618;48.818;9.088;2022-09-09T06:36:23;16.50;99.90
9167;DHT22;4618;48.818;9.088;2022-09-09T06:38:49;16.50;99.90
9167;DHT22;4618;48.818;9.088;2022-09-09T06:41:17;16.50;99.90
9167;DHT22;4618;48.818;9.088;2022-09-09T06:43:44;16.50;99.90
9167;DHT22;4618;48.818;9.088;2022-09-09T06:46:20;16.50;99.90
9167;DHT22;4618;48.818;9.088;2022-09-09T06:48:46;16.60;99.90
9167;DHT22;4618;48.818;9.088;2022-09-09T06:51:15;16.70;99.90
9167;DHT22;4618;48.818;9.088;2022-09-09T06:53:42;16.70;99.90
9167;DHT22;4618;48.818;9.088;2022-09-09T06:56:21;16.80;99.90
9167;DHT22;4618;48.818;9.088;2022-09-09T06:58:50;16.90;99.90
9167;DHT22;4618;48.818;9.088;2022-09-09T07:01:18;16.90;99.90
9167;DHT22;4618;48.818;9.088;2022-09-09T07:03:49;17.00;99.90
9167;DHT22;4618;48.818;9.088;2022-09-09T07:06:24;17.00;99.90
9167;DHT22;4618;48.818;9.088;2022-09-09T07:08:58;16.90;99.90
9167;DHT22;4618;48.818;9.088;2022-09-09T07:11:26;17.10;99.90
9167;DHT22;4618;48.818;9.088;2022-09-09T07:13:52;17.20;99.90
9167;DHT22;4618;48.818;9.088;2022-09-09T07:16:19;17.30;99.90
9167;DHT22;4618;48.818;9.088;2022-09-09T07:18:45;17.30;99.90
9167;DHT22;4618;48.818;9.088;2022-09-09T07:21:13;17.40;99.90
9167;DHT22;4618;48.818;9.088;2022-09-09T07:23:39;17.50;96.10
9167;DHT22;4618;48.818;9.088;2022-09-09T07:26:14;17.70;1.00
9167;DHT22;4618;48.818;9.088;2022-09-09T07:28:40;17.90;1.00
9167;DHT22;4618;48.818;9.088;2022-09-09T07:31:08;18.10;1.00
9167;DHT22;4618;48.818;9.088;2022-09-09T07:33:39;18.20;1.00
9167;DHT22;4618;48.818;9.088;2022-09-09T07:36:15;18.50;1.00
9167;DHT22;4618;48.818;9.088;2022-09-09T07:38:46;18.60;1.00
9167;DHT22;4618;48.818;9.088;2022-09-09T07:41:15;18.70;1.00
9167;DHT22;4618;48.818;9.088;2022-09-09T07:43:43;18.80;1.00
9167;DHT22;4618;48.818;9.088;2022-09-09T07:46:10;18.80;1.00
9167;DHT22;4618;48.818;9.088;2022-09-09T07:48:36;18.50;1.00
9167;DHT22;4618;48.818;9.088;2022-09-09T07:51:15;18.20;1.00
9167;DHT22;4618;48.818;9.088;2022-09-09T07:53:45;18.20;1.00
9167;DHT22;4618;48.818;9.088;2022-09-09T07:56:14;18.30;1.00
9167;DHT22;4618;48.818;9.088;2022-09-09T07:58:44;18.60;1.00
9167;DHT22;4618;48.818;9.088;2022-09-09T08:01:16;18.90;1.00
9167;DHT22;4618;48.818;9.088;2022-09-09T08:03:44;19.60;1.00
9167;DHT22;4618;48.818;9.088;2022-09-09T08:06:10;20.10;99.90
9167;DHT22;4618;48.818;9.088;2022-09-09T08:08:37;20.20;99.90
9167;DHT22;4618;48.818;9.088;2022-09-09T08:11:14;19.80;99.90
9167;DHT22;4618;48.818;9.088;2022-09-09T08:13:42;19.60;99.90
9167;DHT22;4618;48.818;9.088;2022-09-09T08:16:15;20.00;99.90
9167;DHT22;4618;48.818;9.088;2022-09-09T08:18:41;20.70;99.90
9167;DHT22;4618;48.818;9.088;2022-09-09T08:21:09;21.40;99.90
9167;DHT22;4618;48.818;9.088;2022-09-09T08:23:40;21.80;99.90
9167;DHT22;4618;48.818;9.088;2022-09-09T08:26:16;21.90;99.90
9167;DHT22;4618;48.818;9.088;2022-09-09T08:28:43;22.30;99.90
9167;DHT22;4618;48.818;9.088;2022-09-09T08:31:21;22.40;99.90
9167;DHT22;4618;48.818;9.088;2022-09-09T08:33:47;21.80;99.90
9167;DHT22;4618;48.818;9.088;2022-09-09T08:36:20;21.70;99.90
9167;DHT22;4618;48.818;9.088;2022-09-09T08:38:50;22.30;99.90
9167;DHT22;4618;48.818;9.088;2022-09-09T08:41:48;22.40;99.90
9167;DHT22;4618;48.818;9.088;2022-09-09T08:47:21;24.00;99.90
9167;DHT22;4618;48.818;9.088;2022-09-09T08:50:27;23.80;99.90
9167;DHT22;4618;48.818;9.088;2022-09-09T08:55:56;23.10;99.90
9167;DHT22;4618;48.818;9.088;2022-09-09T08:58:35;23.20;99.90
9167;DHT22;4618;48.818;9.088;2022-09-09T09:09:57;23.10;99.90
9167;DHT22;4618;48.818;9.088;2022-09-09T09:12:30;21.90;99.90
9167;DHT22;4618;48.818;9.088;2022-09-09T09:14:59;21.10;99.90
9167;DHT22;4618;48.818;9.088;2022-09-09T09:17:27;20.30;99.90
9167;DHT22;4618;48.818;9.088;2022-09-09T09:19:53;20.00;99.90
9167;DHT22;4618;48.818;9.088;2022-09-09T09:22:30;19.90;99.90
9167;DHT22;4618;48.818;9.088;2022-09-09T09:25:23;19.90;99.90
9167;DHT22;4618;48.818;9.088;2022-09-09T09:27:57;19.80;99.90
9167;DHT22;4618;48.818;9.088;2022-09-09T09:30:31;20.10;99.90
9167;DHT22;4618;48.818;9.088;2022-09-09T09:33:08;20.20;99.90
9167;DHT22;4618;48.818;9.088;2022-09-09T09:35:38;19.70;99.90
9167;DHT22;4618;48.818;9.088;2022-09-09T09:38:17;20.90;99.90
9167;DHT22;4618;48.818;9.088;2022-09-09T09:40:54;22.20;99.90
9167;DHT22;4618;48.818;9.088;2022-09-09T09:43:34;22.70;99.90
9167;DHT22;4618;48.818;9.088;2022-09-09T09:46:03;22.80;99.90
9167;DHT22;4618;48.818;9.088;2022-09-09T09:48:29;22.90;99.90
9167;DHT22;4618;48.818;9.088;2022-09-09T09:50:59;23.50;99.90
9167;DHT22;4618;48.818;9.088;2022-09-09T09:53:28;23.60;99.90
9167;DHT22;4618;48.818;9.088;2022-09-09T09:58:29;24.20;99.90
9167;DHT22;4618;48.818;9.088;2022-09-09T10:00:59;24.40;99.90
9167;DHT22;4618;48.818;9.088;2022-09-09T10:03:35;25.00;99.90
9167;DHT22;4618;48.818;9.088;2022-09-09T10:06:05;24.70;99.90
9167;DHT22;4618;48.818;9.088;2022-09-09T10:08:34;25.00;99.90
9167;DHT22;4618;48.818;9.088;2022-09-09T10:11:22;25.30;99.90
9167;DHT22;4618;48.818;9.088;2022-09-09T10:17:26;24.80;99.90
9167;DHT22;4618;48.818;9.088;2022-09-09T10:20:06;24.70;99.90
9167;DHT22;4618;48.818;9.088;2022-09-09T10:22:44;25.40;99.90
9167;DHT22;4618;48.818;9.088;2022-09-09T10:33:42;25.70;99.90
9167;DHT22;4618;48.818;9.088;2022-09-09T10:36:25;24.90;99.90
9167;DHT22;4618;48.818;9.088;2022-09-09T10:39:32;24.60;99.90
9167;DHT22;4618;48.818;9.088;2022-09-09T10:42:08;26.30;99.90
9167;DHT22;4618;48.818;9.088;2022-09-09T10:50:45;25.80;99.90
9167;DHT22;4618;48.818;9.088;2022-09-09T10:53:45;25.80;99.90
9167;DHT22;4618;48.818;9.088;2022-09-09T10:56:16;23.40;99.90
9167;DHT22;4618;48.818;9.088;2022-09-09T10:59:07;22.80;99.90
9167;DHT22;4618;48.818;9.088;2022-09-09T11:01:48;22.20;99.90
9167;DHT22;4618;48.818;9.088;2022-09-09T11:04:25;21.30;99.90
9167;DHT22;4618;48.818;9.088;2022-09-09T11:06:55;20.10;99.90
9167;DHT22;4618;48.818;9.088;2022-09-09T11:09:28;18.60;1.00
9167;DHT22;4618;48.818;9.088;2022-09-09T11:11:57;17.60;1.00
9167;DHT22;4618;48.818;9.088;2022-09-09T11:15:04;17.20;1.00
9167;DHT22;4618;48.818;9.088;2022-09-09T11:17:49;17.10;1.00
9167;DHT22;4618;48.818;9.088;2022-09-09T11:22:48;17.40;1.00
9167;DHT22;4618;48.818;9.088;2022-09-09T11:28:28;18.50;99.90
9167;DHT22;4618;48.818;9.088;2022-09-09T11:31:08;18.40;99.90
9167;DHT22;4618;48.818;9.088;2022-09-09T11:33:49;18.10;1.00
9167;DHT22;4618;48.818;9.088;2022-09-09T11:36:43;18.00;99.90
9167;DHT22;4618;48.818;9.088;2022-09-09T11:44:38;17.70;55.40
9167;DHT22;4618;48.818;9.088;2022-09-09T11:47:20;17.60;1.00
9167;DHT22;4618;48.818;9.088;2022-09-09T11:49:48;17.80;1.60
9167;DHT22;4618;48.818;9.088;2022-09-09T11:52:23;17.80;1.00
9167;DHT22;4618;48.818;9.088;2022-09-09T11:54:50;17.90;1.00
9167;DHT22;4618;48.818;9.088;2022-09-09T11:57:25;18.10;1.00
9167;DHT22;4618;48.818;9.088;2022-09-09T11:59:53;18.40;1.00
9167;DHT22;4618;48.818;9.088;2022-09-09T12:02:25;18.70;1.00
9167;DHT22;4618;48.818;9.088;2022-09-09T12:05:12;19.30;99.90
9167;DHT22;4618;48.818;9.088;2022-09-09T12:07:42;20.50;99.90
9167;DHT22;4618;48.818;9.088;2022-09-09T12:10:30;21.00;99.90
9167;DHT22;4618;48.818;9.088;2022-09-09T12:13:15;21.30;99.90
9167;DHT22;4618;48.818;9.088;2022-09-09T12:15:49;21.10;99.90
9167;DHT22;4618;48.818;9.088;2022-09-09T12:18:25;22.40;99.90
9167;DHT22;4618;48.818;9.088;2022-09-09T12:23:40;23.10;99.90
9167;DHT22;4618;48.818;9.088;2022-09-09T12:29:33;22.40;99.90
9167;DHT22;4618;48.818;9.088;2022-09-09T12:32:07;22.40;99.90
9167;DHT22;4618;48.818;9.088;2022-09-09T12:34:49;22.70;99.90
9167;DHT22;4618;48.818;9.088;2022-09-09T12:37:32;22.80;99.90
9167;DHT22;4618;48.818;9.088;2022-09-09T12:40:03;23.00;99.90
9167;DHT22;4618;48.818;9.088;2022-09-09T12:42:30;23.40;99.90
9167;DHT22;4618;48.818;9.088;2022-09-09T12:45:03;23.90;99.90
9167;DHT22;4618;48.818;9.088;2022-09-09T12:47:42;24.10;99.90
9167;DHT22;4618;48.818;9.088;2022-09-09T12:51:16;23.40;99.90
9167;DHT22;4618;48.818;9.088;2022-09-09T12:53:35;23.80;99.90
9167;DHT22;4618;48.818;9.088;2022-09-09T12:56:06;24.40;99.90
9167;DHT22;4618;48.818;9.088;2022-09-09T12:58:36;24.30;99.90
9167;DHT22;4618;48.818;9.088;2022-09-09T13:01:04;23.80;99.90
9167;DHT22;4618;48.818;9.088;2022-09-09T13:03:32;23.80;99.90
9167;DHT22;4618;48.818;9.088;2022-09-09T13:06:22;23.40;99.90
9167;DHT22;4618;48.818;9.088;2022-09-09T13:08:45;21.70;99.90
9167;DHT22;4618;48.818;9.088;2022-09-09T13:11:15;21.80;99.90
9167;DHT22;4618;48.818;9.088;2022-09-09T13:13:43;22.00;99.90
9167;DHT22;4618;48.818;9.088;2022-09-09T13:16:30;22.80;99.90
9167;DHT22;4618;48.818;9.088;2022-09-09T13:19:07;23.40;99.90
9167;DHT22;4618;48.818;9.088;2022-09-09T13:21:38;24.00;99.90
9167;DHT22;4618;48.818;9.088;2022-09-09T13:24:25;25.10;99.90
9167;DHT22;4618;48.818;9.088;2022-09-09T13:27:00;25.80;99.90
9167;DHT22;4618;48.818;9.088;2022-09-09T13:29:30;25.40;99.90
9167;DHT22;4618;48.818;9.088;2022-09-09T13:32:12;25.30;99.90
9167;DHT22;4618;48.818;9.088;2022-09-09T13:34:51;25.30;99.90
9167;DHT22;4618;48.818;9.088;2022-09-09T13:39:59;23.70;99.90
9167;DHT22;4618;48.818;9.088;2022-09-09T13:42:30;23.00;99.90
9167;DHT22;4618;48.818;9.088;2022-09-09T13:44:58;23.90;99.90
9167;DHT22;4618;48.818;9.088;2022-09-09T13:47:43;23.30;99.90
9167;DHT22;4618;48.818;9.088;2022-09-09T13:50:20;22.60;99.90
9167;DHT22;4618;48.818;9.088;2022-09-09T13:52:50;22.80;99.90
9167;DHT22;4618;48.818;9.088;2022-09-09T13:55:17;23.00;99.90
9167;DHT22;4618;48.818;9.088;2022-09-09T13:57:54;24.70;99.90
9167;DHT22;4618;48.818;9.088;2022-09-09T14:00:21;25.70;99.90
9167;DHT22;4618;48.818;9.088;2022-09-09T14:02:48;26.20;99.90
9167;DHT22;4618;48.818;9.088;2022-09-09T14:05:13;26.90;99.90
9167;DHT22;4618;48.818;9.088;2022-09-09T14:07:42;26.60;99.90
9167;DHT22;4618;48.818;9.088;2022-09-09T14:10:08;25.90;99.90
9167;DHT22;4618;48.818;9.088;2022-09-09T14:12:34;25.80;99.90
9167;DHT22;4618;48.818;9.088;2022-09-09T14:15:02;26.10;99.90
9167;DHT22;4618;48.818;9.088;2022-09-09T14:17:28;26.20;99.90
9167;DHT22;4618;48.818;9.088;2022-09-09T14:19:56;25.40;99.90
9167;DHT22;4618;48.818;9.088;2022-09-09T14:22:23;23.70;99.90
9167;DHT22;4618;48.818;9.088;2022-09-09T14:24:49;23.30;99.90
9167;DHT22;4618;48.818;9.088;2022-09-09T14:27:15;24.00;99.90
9167;DHT22;4618;48.818;9.088;2022-09-09T14:29:41;23.70;99.90
9167;DHT22;4618;48.818;9.088;2022-09-09T14:32:08;23.00;99.90
9167;DHT22;4618;48.818;9.088;2022-09-09T14:34:34;22.10;99.90
9167;DHT22;4618;48.818;9.088;2022-09-09T14:37:00;22.00;99.90
9167;DHT22;4618;48.818;9.088;2022-09-09T14:39:26;22.00;99.90
9167;DHT22;4618;48.818;9.088;2022-09-09T14:41:52;22.60;99.90
9167;DHT22;4618;48.818;9.088;2022-09-09T14:44:17;23.10;99.90
9167;DHT22;4618;48.818;9.088;2022-09-09T14:46:43;23.40;99.90
9167;DHT22;4618;48.818;9.088;2022-09-09T14:49:09;23.70;99.90
9167;DHT22;4618;48.818;9.088;2022-09-09T14:51:36;23.60;99.90
9167;DHT22;4618;48.818;9.088;2022-09-09T14:54:01;23.70;99.90
9167;DHT22;4618;48.818;9.088;2022-09-09T14:56:32;24.60;99.90
9167;DHT22;4618;48.818;9.088;2022-09-09T14:59:00;25.20;99.90
9167;DHT22;4618;48.818;9.088;2022-09-09T15:01:26;25.40;99.90
9167;DHT22;4618;48.818;9.088;2022-09-09T15:03:54;24.00;99.90
9167;DHT22;4618;48.818;9.088;2022-09-09T15:06:23;22.70;99.90
9167;DHT22;4618;48.818;9.088;2022-09-09T15:08:51;22.10;99.90
9167;DHT22;4618;48.818;9.088;2022-09-09T15:11:18;21.60;99.90
9167;DHT22;4618;48.818;9.088;2022-09-09T15:13:44;21.70;99.90
9167;DHT22;4618;48.818;9.088;2022-09-09T15:16:14;21.50;99.90
9167;DHT22;4618;48.818;9.088;2022-09-09T15:18:41;21.50;99.90
9167;DHT22;4618;48.818;9.088;2022-09-09T15:21:16;21.50;99.90
9167;DHT22;4618;48.818;9.088;2022-09-09T15:23:42;21.50;99.90
9167;DHT22;4618;48.818;9.088;2022-09-09T15:26:08;21.50;99.90
9167;DHT22;4618;48.818;9.088;2022-09-09T15:28:35;21.50;99.90
9167;DHT22;4618;48.818;9.088;2022-09-09T15:31:16;21.60;99.90
9167;DHT22;4618;48.818;9.088;2022-09-09T15:33:55;21.80;99.90
9167;DHT22;4618;48.818;9.088;2022-09-09T15:36:28;22.20;99.90
9167;DHT22;4618;48.818;9.088;2022-09-09T15:38:54;22.20;99.90
9167;DHT22;4618;48.818;9.088;2022-09-09T15:41:21;21.90;99.90
9167;DHT22;4618;48.818;9.088;2022-09-09T15:43:49;21.70;99.90
9167;DHT22;4618;48.818;9.088;2022-09-09T15:48:53;21.00;99.90
9167;DHT22;4618;48.818;9.088;2022-09-09T15:51:19;21.00;99.90
9167;DHT22;4618;48.818;9.088;2022-09-09T15:53:45;20.90;99.90
9167;DHT22;4618;48.818;9.088;2022-09-09T15:56:11;20.80;99.90
9167;DHT22;4618;48.818;9.088;2022-09-09T15:58:37;20.80;99.90
9167;DHT22;4618;48.818;9.088;2022-09-09T16:01:07;20.70;99.90
9167;DHT22;4618;48.818;9.088;2022-09-09T16:03:37;20.60;99.90
9167;DHT22;4618;48.818;9.088;2022-09-09T16:06:04;20.60;99.90
9167;DHT22;4618;48.818;9.088;2022-09-09T16:08:38;20.60;99.90
9167;DHT22;4618;48.818;9.088;2022-09-09T16:11:07;20.60;99.90
9167;DHT22;4618;48.818;9.088;2022-09-09T16:13:38;20.60;99.90
9167;DHT22;4618;48.818;9.088;2022-09-09T16:16:05;20.60;99.90
9167;DHT22;4618;48.818;9.088;2022-09-09T16:18:44;20.60;99.90
9167;DHT22;4618;48.818;9.088;2022-09-09T16:21:21;20.50;99.90
9167;DHT22;4618;48.818;9.088;2022-09-09T16:23:50;20.40;99.90
9167;DHT22;4618;48.818;9.088;2022-09-09T16:26:17;19.80;99.90
9167;DHT22;4618;48.818;9.088;2022-09-09T16:28:43;19.20;99.90
9167;DHT22;4618;48.818;9.088;2022-09-09T16:31:11;18.80;99.90
9167;DHT22;4618;48.818;9.088;2022-09-09T16:33:39;18.60;99.90
9167;DHT22;4618;48.818;9.088;2022-09-09T16:36:07;18.50;99.90
9167;DHT22;4618;48.818;9.088;2022-09-09T16:38:32;18.40;99.90
9167;DHT22;4618;48.818;9.088;2022-09-09T16:40:59;18.30;99.90
9167;DHT22;4618;48.818;9.088;2022-09-09T16:43:25;18.20;99.90
9167;DHT22;4618;48.818;9.088;2022-09-09T16:45:51;18.20;99.90
9167;DHT22;4618;48.818;9.088;2022-09-09T16:48:16;18.30;99.90
9167;DHT22;4618;48.818;9.088;2022-09-09T16:50:42;18.30;99.90
9167;DHT22;4618;48.818;9.088;2022-09-09T16:53:07;18.20;99.90
9167;DHT22;4618;48.818;9.088;2022-09-09T16:55:38;17.50;99.90
9167;DHT22;4618;48.818;9.088;2022-09-09T16:58:04;17.20;99.90
9167;DHT22;4618;48.818;9.088;2022-09-09T17:00:30;17.20;99.90
9167;DHT22;4618;48.818;9.088;2022-09-09T17:02:56;17.20;99.90
9167;DHT22;4618;48.818;9.088;2022-09-09T17:05:21;17.20;99.90
9167;DHT22;4618;48.818;9.088;2022-09-09T17:07:48;17.10;99.90
9167;DHT22;4618;48.818;9.088;2022-09-09T17:10:14;17.00;99.90
9167;DHT22;4618;48.818;9.088;2022-09-09T17:12:39;17.00;1.00
9167;DHT22;4618;48.818;9.088;2022-09-09T17:15:07;16.80;1.00
9167;DHT22;4618;48.818;9.088;2022-09-09T17:17:32;16.90;1.00
9167;DHT22;4618;48.818;9.088;2022-09-09T17:19:58;16.70;1.00
9167;DHT22;4618;48.818;9.088;2022-09-09T17:22:24;16.70;1.00
9167;DHT22;4618;48.818;9.088;2022-09-09T17:24:51;16.60;1.00
9167;DHT22;4618;48.818;9.088;2022-09-09T17:27:17;16.60;1.00
9167;DHT22;4618;48.818;9.088;2022-09-09T17:29:43;16.50;1.00
9167;DHT22;4618;48.818;9.088;2022-09-09T17:32:08;16.50;1.00
9167;DHT22;4618;48.818;9.088;2022-09-09T17:34:34;16.50;1.00
9167;DHT22;4618;48.818;9.088;2022-09-09T17:37:00;16.40;1.00
9167;DHT22;4618;48.818;9.088;2022-09-09T17:39:26;16.40;1.00
9167;DHT22;4618;48.818;9.088;2022-09-09T17:41:52;16.50;1.00
9167;DHT22;4618;48.818;9.088;2022-09-09T17:44:18;16.40;1.00
9167;DHT22;4618;48.818;9.088;2022-09-09T17:46:45;16.50;1.00
9167;DHT22;4618;48.818;9.088;2022-09-09T17:49:16;16.40;34.40
9167;DHT22;4618;48.818;9.088;2022-09-09T17:51:43;16.40;99.90
9167;DHT22;4618;48.818;9.088;2022-09-09T17:54:17;16.20;99.90
9167;DHT22;4618;48.818;9.088;2022-09-09T17:56:44;16.20;99.90
9167;DHT22;4618;48.818;9.088;2022-09-09T17:59:11;16.20;99.90
9167;DHT22;4618;48.818;9.088;2022-09-09T18:01:39;16.10;99.90
9167;DHT22;4618;48.818;9.088;2022-09-09T18:04:08;16.20;99.90
9167;DHT22;4618;48.818;9.088;2022-09-09T18:06:39;16.20;99.90
9167;DHT22;4618;48.818;9.088;2022-09-09T18:09:07;16.20;99.90
9167;DHT22;4618;48.818;9.088;2022-09-09T18:11:37;16.30;99.90